sensor_id;sensor_type;location;lat;lon;timestamp;P1;durP1;ratioP1;P2;durP2;ratioP2
20245;SDS011;10281;54.406;18.556;2022-08-19T00:01:23;13.00;;;11.10;;
20245;SDS011;10281;54.406;18.556;2022-08-19T00:03:51;14.07;;;11.43;;
20245;SDS011;10281;54.406;18.556;2022-08-19T00:06:18;12.57;;;10.80;;
20245;SDS011;10281;54.406;18.556;2022-08-19T00:08:44;12.60;;;10.90;;
20245;SDS011;10281;54.406;18.556;2022-08-19T00:11:11;12.17;;;10.97;;
20245;SDS011;10281;54.406;18.556;2022-08-19T00:13:38;12.30;;;11.10;;
20245;SDS011;10281;54.406;18.556;2022-08-19T00:16:05;12.17;;;10.87;;
20245;SDS011;10281;54.406;18.556;2022-08-19T00:18:32;12.50;;;11.20;;
20245;SDS011;10281;54.406;18.556;2022-08-19T00:21:00;12.33;;;11.13;;
20245;SDS011;10281;54.406;18.556;2022-08-19T00:23:26;17.07;;;10.90;;
20245;SDS011;10281;54.406;18.556;2022-08-19T00:25:53;13.03;;;10.93;;
20245;SDS011;10281;54.406;18.556;2022-08-19T00:28:20;12.43;;;11.13;;
20245;SDS011;10281;54.406;18.556;2022-08-19T00:30:47;11.20;;;10.10;;
20245;SDS011;10281;54.406;18.556;2022-08-19T00:33:14;12.97;;;10.80;;
20245;SDS011;10281;54.406;18.556;2022-08-19T00:35:42;12.73;;;11.23;;
20245;SDS011;10281;54.406;18.556;2022-08-19T00:38:08;12.30;;;11.10;;
20245;SDS011;10281;54.406;18.556;2022-08-19T00:40:35;12.47;;;11.23;;
20245;SDS011;10281;54.406;18.556;2022-08-19T00:43:07;13.20;;;10.77;;
20245;SDS011;10281;54.406;18.556;2022-08-19T00:45:38;13.50;;;11.60;;
20245;SDS011;10281;54.406;18.556;2022-08-19T00:48:07;12.97;;;11.10;;
20245;SDS011;10281;54.406;18.556;2022-08-19T00:50:35;12.80;;;11.23;;
20245;SDS011;10281;54.406;18.556;2022-08-19T00:53:02;12.43;;;10.97;;
20245;SDS011;10281;54.406;18.556;2022-08-19T00:55:29;13.50;;;11.73;;
20245;SDS011;10281;54.406;18.556;2022-08-19T00:58:00;13.37;;;10.87;;
20245;SDS011;10281;54.406;18.556;2022-08-19T01:00:29;12.67;;;10.70;;
20245;SDS011;10281;54.406;18.556;2022-08-19T01:02:57;13.00;;;11.30;;
20245;SDS011;10281;54.406;18.556;2022-08-19T01:05:24;14.07;;;11.43;;
20245;SDS011;10281;54.406;18.556;2022-08-19T01:07:54;14.67;;;11.73;;
20245;SDS011;10281;54.406;18.556;2022-08-19T01:10:24;12.43;;;11.13;;
20245;SDS011;10281;54.406;18.556;2022-08-19T01:12:52;12.13;;;10.57;;
20245;SDS011;10281;54.406;18.556;2022-08-19T01:15:24;11.87;;;10.67;;
20245;SDS011;10281;54.406;18.556;2022-08-19T01:17:53;11.73;;;10.53;;
20245;SDS011;10281;54.406;18.556;2022-08-19T01:20:23;13.10;;;11.70;;
20245;SDS011;10281;54.406;18.556;2022-08-19T01:22:53;12.20;;;11.00;;
20245;SDS011;10281;54.406;18.556;2022-08-19T01:25:24;12.30;;;11.10;;
20245;SDS011;10281;54.406;18.556;2022-08-19T01:27:52;12.00;;;10.73;;
20245;SDS011;10281;54.406;18.556;2022-08-19T01:30:21;12.77;;;11.43;;
20245;SDS011;10281;54.406;18.556;2022-08-19T01:32:50;13.13;;;11.73;;
20245;SDS011;10281;54.406;18.556;2022-08-19T01:35:18;12.57;;;11.27;;
20245;SDS011;10281;54.406;18.556;2022-08-19T01:37:47;12.67;;;11.37;;
20245;SDS011;10281;54.406;18.556;2022-08-19T01:40:17;12.70;;;11.40;;
20245;SDS011;10281;54.406;18.556;2022-08-19T01:42:46;12.90;;;11.03;;
20245;SDS011;10281;54.406;18.556;2022-08-19T01:45:14;14.13;;;11.07;;
20245;SDS011;10281;54.406;18.556;2022-08-19T01:47:41;13.07;;;11.63;;
20245;SDS011;10281;54.406;18.556;2022-08-19T01:50:10;12.73;;;11.40;;
20245;SDS011;10281;54.406;18.556;2022-08-19T01:52:38;14.37;;;12.60;;
20245;SDS011;10281;54.406;18.556;2022-08-19T01:55:07;13.03;;;11.73;;
20245;SDS011;10281;54.406;18.556;2022-08-19T01:57:35;13.13;;;11.17;;
20245;SDS011;10281;54.406;18.556;2022-08-19T02:00:05;13.20;;;11.77;;
20245;SDS011;10281;54.406;18.556;2022-08-19T02:02:35;13.40;;;11.63;;
20245;SDS011;10281;54.406;18.556;2022-08-19T02:05:02;15.43;;;12.37;;
20245;SDS011;10281;54.406;18.556;2022-08-19T02:07:29;13.00;;;11.07;;
20245;SDS011;10281;54.406;18.556;2022-08-19T02:09:58;12.57;;;11.27;;
20245;SDS011;10281;54.406;18.556;2022-08-19T02:12:24;12.77;;;11.30;;
20245;SDS011;10281;54.406;18.556;2022-08-19T02:14:51;12.17;;;11.03;;
20245;SDS011;10281;54.406;18.556;2022-08-19T02:17:18;12.43;;;11.17;;
20245;SDS011;10281;54.406;18.556;2022-08-19T02:19:44;12.97;;;11.67;;
20245;SDS011;10281;54.406;18.556;2022-08-19T02:22:11;14.57;;;11.90;;
20245;SDS011;10281;54.406;18.556;2022-08-19T02:24:38;15.43;;;11.60;;
20245;SDS011;10281;54.406;18.556;2022-08-19T02:27:05;13.13;;;11.80;;
20245;SDS011;10281;54.406;18.556;2022-08-19T02:29:31;13.13;;;11.70;;
20245;SDS011;10281;54.406;18.556;2022-08-19T02:31:58;12.23;;;10.93;;
20245;SDS011;10281;54.406;18.556;2022-08-19T02:34:25;12.17;;;11.03;;
20245;SDS011;10281;54.406;18.556;2022-08-19T02:36:52;14.13;;;11.33;;
20245;SDS011;10281;54.406;18.556;2022-08-19T02:39:19;12.27;;;11.13;;
20245;SDS011;10281;54.406;18.556;2022-08-19T02:41:45;12.83;;;11.60;;
20245;SDS011;10281;54.406;18.556;2022-08-19T02:44:12;12.63;;;11.37;;
20245;SDS011;10281;54.406;18.556;2022-08-19T02:46:39;13.93;;;11.40;;
20245;SDS011;10281;54.406;18.556;2022-08-19T02:49:06;12.67;;;11.33;;
20245;SDS011;10281;54.406;18.556;2022-08-19T02:51:36;14.90;;;11.30;;
20245;SDS011;10281;54.406;18.556;2022-08-19T02:54:04;12.67;;;11.47;;
20245;SDS011;10281;54.406;18.556;2022-08-19T02:56:33;13.00;;;11.70;;
20245;SDS011;10281;54.406;18.556;2022-08-19T02:59:01;13.10;;;11.87;;
20245;SDS011;10281;54.406;18.556;2022-08-19T03:01:31;13.77;;;12.37;;
20245;SDS011;10281;54.406;18.556;2022-08-19T03:04:00;13.50;;;11.50;;
20245;SDS011;10281;54.406;18.556;2022-08-19T03:06:29;13.33;;;11.93;;
20245;SDS011;10281;54.406;18.556;2022-08-19T03:08:57;13.50;;;12.10;;
20245;SDS011;10281;54.406;18.556;2022-08-19T03:11:26;14.17;;;11.73;;
20245;SDS011;10281;54.406;18.556;2022-08-19T03:13:55;12.87;;;11.27;;
20245;SDS011;10281;54.406;18.556;2022-08-19T03:16:24;12.60;;;11.40;;
20245;SDS011;10281;54.406;18.556;2022-08-19T03:18:52;14.67;;;12.00;;
20245;SDS011;10281;54.406;18.556;2022-08-19T03:21:22;11.90;;;10.70;;
20245;SDS011;10281;54.406;18.556;2022-08-19T03:23:53;13.10;;;11.80;;
20245;SDS011;10281;54.406;18.556;2022-08-19T03:26:20;13.23;;;11.77;;
20245;SDS011;10281;54.406;18.556;2022-08-19T03:28:47;14.10;;;11.30;;
20245;SDS011;10281;54.406;18.556;2022-08-19T03:31:16;12.37;;;11.27;;
20245;SDS011;10281;54.406;18.556;2022-08-19T03:33:44;15.03;;;12.10;;
20245;SDS011;10281;54.406;18.556;2022-08-19T03:36:17;13.40;;;12.00;;
20245;SDS011;10281;54.406;18.556;2022-08-19T03:38:44;13.03;;;11.77;;
20245;SDS011;10281;54.406;18.556;2022-08-19T03:41:15;16.00;;;11.27;;
20245;SDS011;10281;54.406;18.556;2022-08-19T03:43:43;13.40;;;11.97;;
20245;SDS011;10281;54.406;18.556;2022-08-19T03:46:15;14.37;;;11.77;;
20245;SDS011;10281;54.406;18.556;2022-08-19T03:48:45;13.30;;;11.57;;
20245;SDS011;10281;54.406;18.556;2022-08-19T03:51:18;12.93;;;11.37;;
20245;SDS011;10281;54.406;18.556;2022-08-19T03:53:46;13.47;;;12.27;;
20245;SDS011;10281;54.406;18.556;2022-08-19T03:56:14;13.10;;;11.70;;
20245;SDS011;10281;54.406;18.556;2022-08-19T03:58:41;13.80;;;12.37;;
20245;SDS011;10281;54.406;18.556;2022-08-19T04:01:09;13.63;;;11.73;;
20245;SDS011;10281;54.406;18.556;2022-08-19T04:03:38;12.53;;;11.33;;
20245;SDS011;10281;54.406;18.556;2022-08-19T04:06:09;12.60;;;11.30;;
20245;SDS011;10281;54.406;18.556;2022-08-19T04:08:39;12.77;;;11.40;;
20245;SDS011;10281;54.406;18.556;2022-08-19T04:11:08;12.30;;;10.83;;
20245;SDS011;10281;54.406;18.556;2022-08-19T04:13:36;14.90;;;11.87;;
20245;SDS011;10281;54.406;18.556;2022-08-19T04:16:03;12.80;;;11.50;;
20245;SDS011;10281;54.406;18.556;2022-08-19T04:18:32;13.03;;;11.77;;
20245;SDS011;10281;54.406;18.556;2022-08-19T04:20:59;12.40;;;11.30;;
20245;SDS011;10281;54.406;18.556;2022-08-19T04:23:26;13.13;;;11.80;;
20245;SDS011;10281;54.406;18.556;2022-08-19T04:25:53;13.77;;;11.70;;
20245;SDS011;10281;54.406;18.556;2022-08-19T04:28:21;12.00;;;10.83;;
20245;SDS011;10281;54.406;18.556;2022-08-19T04:30:50;13.30;;;11.93;;
20245;SDS011;10281;54.406;18.556;2022-08-19T04:33:19;12.00;;;10.90;;
20245;SDS011;10281;54.406;18.556;2022-08-19T04:35:49;13.13;;;11.57;;
20245;SDS011;10281;54.406;18.556;2022-08-19T04:38:17;13.67;;;12.30;;
20245;SDS011;10281;54.406;18.556;2022-08-19T04:40:47;12.57;;;11.37;;
20245;SDS011;10281;54.406;18.556;2022-08-19T04:43:20;14.70;;;11.83;;
20245;SDS011;10281;54.406;18.556;2022-08-19T04:45:47;13.33;;;12.03;;
20245;SDS011;10281;54.406;18.556;2022-08-19T04:48:13;13.73;;;11.80;;
20245;SDS011;10281;54.406;18.556;2022-08-19T04:50:41;12.73;;;11.43;;
20245;SDS011;10281;54.406;18.556;2022-08-19T04:53:09;13.73;;;12.43;;
20245;SDS011;10281;54.406;18.556;2022-08-19T04:55:38;13.43;;;12.03;;
20245;SDS011;10281;54.406;18.556;2022-08-19T04:58:06;13.63;;;11.50;;
20245;SDS011;10281;54.406;18.556;2022-08-19T05:00:33;13.43;;;12.13;;
20245;SDS011;10281;54.406;18.556;2022-08-19T05:03:00;14.17;;;11.70;;
20245;SDS011;10281;54.406;18.556;2022-08-19T05:05:27;12.87;;;11.30;;
20245;SDS011;10281;54.406;18.556;2022-08-19T05:07:54;12.33;;;11.23;;
20245;SDS011;10281;54.406;18.556;2022-08-19T05:10:21;12.93;;;11.63;;
20245;SDS011;10281;54.406;18.556;2022-08-19T05:12:48;12.90;;;11.33;;
20245;SDS011;10281;54.406;18.556;2022-08-19T05:15:14;13.17;;;11.87;;
20245;SDS011;10281;54.406;18.556;2022-08-19T05:17:41;13.33;;;12.03;;
20245;SDS011;10281;54.406;18.556;2022-08-19T05:20:10;12.73;;;11.43;;
20245;SDS011;10281;54.406;18.556;2022-08-19T05:22:42;12.67;;;11.47;;
20245;SDS011;10281;54.406;18.556;2022-08-19T05:25:11;13.07;;;11.77;;
20245;SDS011;10281;54.406;18.556;2022-08-19T05:27:40;13.20;;;11.80;;
20245;SDS011;10281;54.406;18.556;2022-08-19T05:30:08;13.30;;;11.93;;
20245;SDS011;10281;54.406;18.556;2022-08-19T05:32:36;12.90;;;11.60;;
20245;SDS011;10281;54.406;18.556;2022-08-19T05:35:04;13.20;;;11.90;;
20245;SDS011;10281;54.406;18.556;2022-08-19T05:37:31;14.33;;;11.77;;
20245;SDS011;10281;54.406;18.556;2022-08-19T05:39:58;12.70;;;11.40;;
20245;SDS011;10281;54.406;18.556;2022-08-19T05:42:24;12.43;;;10.80;;
20245;SDS011;10281;54.406;18.556;2022-08-19T05:44:53;12.97;;;11.50;;
20245;SDS011;10281;54.406;18.556;2022-08-19T05:47:20;12.60;;;11.37;;
20245;SDS011;10281;54.406;18.556;2022-08-19T05:49:47;12.70;;;11.50;;
20245;SDS011;10281;54.406;18.556;2022-08-19T05:52:17;12.60;;;11.37;;
20245;SDS011;10281;54.406;18.556;2022-08-19T05:54:45;12.87;;;11.40;;
20245;SDS011;10281;54.406;18.556;2022-08-19T05:57:13;15.27;;;11.40;;
20245;SDS011;10281;54.406;18.556;2022-08-19T05:59:40;12.30;;;11.07;;
20245;SDS011;10281;54.406;18.556;2022-08-19T06:02:07;12.53;;;11.40;;
20245;SDS011;10281;54.406;18.556;2022-08-19T06:04:34;14.57;;;12.67;;
20245;SDS011;10281;54.406;18.556;2022-08-19T06:07:01;12.90;;;11.53;;
20245;SDS011;10281;54.406;18.556;2022-08-19T06:09:27;15.80;;;11.63;;
20245;SDS011;10281;54.406;18.556;2022-08-19T06:11:55;12.93;;;11.63;;
20245;SDS011;10281;54.406;18.556;2022-08-19T06:14:27;14.27;;;11.93;;
20245;SDS011;10281;54.406;18.556;2022-08-19T06:16:55;13.43;;;11.30;;
20245;SDS011;10281;54.406;18.556;2022-08-19T06:19:24;14.47;;;11.83;;
20245;SDS011;10281;54.406;18.556;2022-08-19T06:21:51;12.80;;;11.50;;
20245;SDS011;10281;54.406;18.556;2022-08-19T06:24:20;12.87;;;11.23;;
20245;SDS011;10281;54.406;18.556;2022-08-19T06:26:49;12.70;;;10.87;;
20245;SDS011;10281;54.406;18.556;2022-08-19T06:29:19;12.70;;;11.40;;
20245;SDS011;10281;54.406;18.556;2022-08-19T06:31:48;12.20;;;10.93;;
20245;SDS011;10281;54.406;18.556;2022-08-19T06:34:17;12.80;;;10.70;;
20245;SDS011;10281;54.406;18.556;2022-08-19T06:36:46;12.07;;;10.67;;
20245;SDS011;10281;54.406;18.556;2022-08-19T06:39:15;12.20;;;10.63;;
20245;SDS011;10281;54.406;18.556;2022-08-19T06:41:46;15.33;;;10.57;;
20245;SDS011;10281;54.406;18.556;2022-08-19T06:44:14;10.93;;;9.80;;
20245;SDS011;10281;54.406;18.556;2022-08-19T06:46:41;15.87;;;10.47;;
20245;SDS011;10281;54.406;18.556;2022-08-19T06:49:08;12.70;;;10.40;;
20245;SDS011;10281;54.406;18.556;2022-08-19T06:51:37;11.90;;;10.70;;
20245;SDS011;10281;54.406;18.556;2022-08-19T06:54:04;15.93;;;10.80;;
20245;SDS011;10281;54.406;18.556;2022-08-19T06:56:31;15.57;;;10.23;;
20245;SDS011;10281;54.406;18.556;2022-08-19T06:59:03;11.03;;;9.93;;
20245;SDS011;10281;54.406;18.556;2022-08-19T07:01:34;11.37;;;9.93;;
20245;SDS011;10281;54.406;18.556;2022-08-19T07:04:03;14.07;;;10.67;;
20245;SDS011;10281;54.406;18.556;2022-08-19T07:06:31;11.37;;;9.77;;
20245;SDS011;10281;54.406;18.556;2022-08-19T07:08:58;10.97;;;9.97;;
20245;SDS011;10281;54.406;18.556;2022-08-19T07:11:24;10.43;;;9.40;;
20245;SDS011;10281;54.406;18.556;2022-08-19T07:13:51;13.53;;;9.50;;
20245;SDS011;10281;54.406;18.556;2022-08-19T07:16:18;10.03;;;9.03;;
20245;SDS011;10281;54.406;18.556;2022-08-19T07:18:47;11.40;;;9.97;;
20245;SDS011;10281;54.406;18.556;2022-08-19T07:21:16;10.23;;;9.23;;
20245;SDS011;10281;54.406;18.556;2022-08-19T07:23:45;10.60;;;9.50;;
20245;SDS011;10281;54.406;18.556;2022-08-19T07:26:17;13.17;;;9.27;;
20245;SDS011;10281;54.406;18.556;2022-08-19T07:28:42;11.07;;;9.40;;
20245;SDS011;10281;54.406;18.556;2022-08-19T07:31:11;11.60;;;9.03;;
20245;SDS011;10281;54.406;18.556;2022-08-19T07:33:40;11.33;;;9.60;;
20245;SDS011;10281;54.406;18.556;2022-08-19T07:36:09;11.20;;;9.53;;
20245;SDS011;10281;54.406;18.556;2022-08-19T07:38:38;12.53;;;8.70;;
20245;SDS011;10281;54.406;18.556;2022-08-19T07:41:09;11.13;;;9.33;;
20245;SDS011;10281;54.406;18.556;2022-08-19T07:43:38;11.10;;;9.93;;
20245;SDS011;10281;54.406;18.556;2022-08-19T07:46:06;11.77;;;9.03;;
20245;SDS011;10281;54.406;18.556;2022-08-19T07:48:33;13.00;;;9.30;;
20245;SDS011;10281;54.406;18.556;2022-08-19T07:51:02;14.37;;;9.77;;
20245;SDS011;10281;54.406;18.556;2022-08-19T07:53:30;17.00;;;9.57;;
20245;SDS011;10281;54.406;18.556;2022-08-19T07:55:58;15.47;;;9.47;;
20245;SDS011;10281;54.406;18.556;2022-08-19T07:58:27;10.67;;;9.60;;
20245;SDS011;10281;54.406;18.556;2022-08-19T08:00:54;13.00;;;10.03;;
20245;SDS011;10281;54.406;18.556;2022-08-19T08:03:21;13.13;;;10.07;;
20245;SDS011;10281;54.406;18.556;2022-08-19T08:05:53;10.13;;;9.23;;
20245;SDS011;10281;54.406;18.556;2022-08-19T08:08:25;15.47;;;9.70;;
20245;SDS011;10281;54.406;18.556;2022-08-19T08:11:15;11.43;;;9.00;;
20245;SDS011;10281;54.406;18.556;2022-08-19T08:13:43;11.33;;;9.93;;
20245;SDS011;10281;54.406;18.556;2022-08-19T08:16:10;9.57;;;8.67;;
20245;SDS011;10281;54.406;18.556;2022-08-19T08:18:37;13.23;;;9.20;;
20245;SDS011;10281;54.406;18.556;2022-08-19T08:21:06;9.83;;;8.83;;
20245;SDS011;10281;54.406;18.556;2022-08-19T08:23:33;13.40;;;9.43;;
20245;SDS011;10281;54.406;18.556;2022-08-19T08:26:00;13.27;;;9.10;;
20245;SDS011;10281;54.406;18.556;2022-08-19T08:28:28;10.30;;;8.77;;
20245;SDS011;10281;54.406;18.556;2022-08-19T08:30:55;12.53;;;9.10;;
20245;SDS011;10281;54.406;18.556;2022-08-19T08:33:24;11.07;;;9.10;;
20245;SDS011;10281;54.406;18.556;2022-08-19T08:35:52;10.50;;;9.23;;
20245;SDS011;10281;54.406;18.556;2022-08-19T08:38:18;17.07;;;10.97;;
20245;SDS011;10281;54.406;18.556;2022-08-19T08:40:47;14.83;;;10.30;;
20245;SDS011;10281;54.406;18.556;2022-08-19T08:43:22;13.27;;;11.17;;
20245;SDS011;10281;54.406;18.556;2022-08-19T08:46:05;14.60;;;10.17;;
20245;SDS011;10281;54.406;18.556;2022-08-19T08:48:36;12.57;;;11.27;;
20245;SDS011;10281;54.406;18.556;2022-08-19T08:51:10;12.90;;;10.77;;
20245;SDS011;10281;54.406;18.556;2022-08-19T08:53:39;13.17;;;11.10;;
20245;SDS011;10281;54.406;18.556;2022-08-19T08:56:08;13.60;;;11.70;;
20245;SDS011;10281;54.406;18.556;2022-08-19T08:58:43;16.70;;;11.07;;
20245;SDS011;10281;54.406;18.556;2022-08-19T09:01:12;16.80;;;11.07;;
20245;SDS011;10281;54.406;18.556;2022-08-19T09:03:39;13.97;;;10.77;;
20245;SDS011;10281;54.406;18.556;2022-08-19T09:06:14;13.40;;;10.30;;
20245;SDS011;10281;54.406;18.556;2022-08-19T09:08:48;11.87;;;9.93;;
20245;SDS011;10281;54.406;18.556;2022-08-19T09:11:28;14.67;;;10.93;;
20245;SDS011;10281;54.406;18.556;2022-08-19T09:16:33;14.87;;;10.00;;
20245;SDS011;10281;54.406;18.556;2022-08-19T09:19:02;11.53;;;10.17;;
20245;SDS011;10281;54.406;18.556;2022-08-19T09:21:31;12.83;;;10.33;;
20245;SDS011;10281;54.406;18.556;2022-08-19T09:23:57;15.83;;;10.40;;
20245;SDS011;10281;54.406;18.556;2022-08-19T09:26:24;14.50;;;10.90;;
20245;SDS011;10281;54.406;18.556;2022-08-19T09:28:52;12.17;;;10.10;;
20245;SDS011;10281;54.406;18.556;2022-08-19T09:31:22;13.43;;;10.47;;
20245;SDS011;10281;54.406;18.556;2022-08-19T09:33:51;12.97;;;10.80;;
20245;SDS011;10281;54.406;18.556;2022-08-19T09:36:19;16.77;;;11.20;;
20245;SDS011;10281;54.406;18.556;2022-08-19T09:38:48;12.63;;;11.27;;
20245;SDS011;10281;54.406;18.556;2022-08-19T09:41:16;11.90;;;10.63;;
20245;SDS011;10281;54.406;18.556;2022-08-19T09:43:46;12.90;;;10.83;;
20245;SDS011;10281;54.406;18.556;2022-08-19T09:46:16;10.63;;;9.53;;
20245;SDS011;10281;54.406;18.556;2022-08-19T09:48:44;13.27;;;10.13;;
20245;SDS011;10281;54.406;18.556;2022-08-19T09:51:14;13.13;;;10.73;;
20245;SDS011;10281;54.406;18.556;2022-08-19T09:53:44;11.50;;;9.83;;
20245;SDS011;10281;54.406;18.556;2022-08-19T09:56:12;12.35;;;9.03;;
20245;SDS011;10281;54.406;18.556;2022-08-19T09:58:40;10.13;;;9.20;;
20245;SDS011;10281;54.406;18.556;2022-08-19T10:01:06;12.63;;;9.50;;
20245;SDS011;10281;54.406;18.556;2022-08-19T10:03:34;12.27;;;8.83;;
20245;SDS011;10281;54.406;18.556;2022-08-19T10:06:02;17.37;;;10.17;;
20245;SDS011;10281;54.406;18.556;2022-08-19T10:08:32;11.43;;;9.13;;
20245;SDS011;10281;54.406;18.556;2022-08-19T10:11:02;12.77;;;9.30;;
20245;SDS011;10281;54.406;18.556;2022-08-19T10:13:31;13.37;;;8.70;;
20245;SDS011;10281;54.406;18.556;2022-08-19T10:16:06;11.12;;;8.58;;
20245;SDS011;10281;54.406;18.556;2022-08-19T10:18:35;12.53;;;6.47;;
20245;SDS011;10281;54.406;18.556;2022-08-19T10:21:04;11.93;;;6.57;;
20245;SDS011;10281;54.406;18.556;2022-08-19T10:23:34;8.33;;;6.83;;
20245;SDS011;10281;54.406;18.556;2022-08-19T10:26:03;8.73;;;6.60;;
20245;SDS011;10281;54.406;18.556;2022-08-19T10:28:34;12.20;;;6.12;;
20245;SDS011;10281;54.406;18.556;2022-08-19T10:31:04;8.67;;;6.30;;
20245;SDS011;10281;54.406;18.556;2022-08-19T10:33:33;6.60;;;5.83;;
20245;SDS011;10281;54.406;18.556;2022-08-19T10:36:01;14.50;;;6.30;;
20245;SDS011;10281;54.406;18.556;2022-08-19T10:38:30;9.38;;;6.25;;
20245;SDS011;10281;54.406;18.556;2022-08-19T10:40:57;9.53;;;6.97;;
20245;SDS011;10281;54.406;18.556;2022-08-19T10:43:26;11.50;;;6.12;;
20245;SDS011;10281;54.406;18.556;2022-08-19T10:45:53;10.95;;;6.60;;
20245;SDS011;10281;54.406;18.556;2022-08-19T10:48:22;11.33;;;6.47;;
20245;SDS011;10281;54.406;18.556;2022-08-19T10:50:49;10.75;;;6.42;;
20245;SDS011;10281;54.406;18.556;2022-08-19T10:53:21;7.35;;;6.08;;
20245;SDS011;10281;54.406;18.556;2022-08-19T10:55:50;6.62;;;5.97;;
20245;SDS011;10281;54.406;18.556;2022-08-19T10:58:22;9.03;;;6.37;;
20245;SDS011;10281;54.406;18.556;2022-08-19T11:00:52;12.43;;;6.72;;
20245;SDS011;10281;54.406;18.556;2022-08-19T11:03:20;12.15;;;6.67;;
20245;SDS011;10281;54.406;18.556;2022-08-19T11:05:56;7.45;;;6.30;;
20245;SDS011;10281;54.406;18.556;2022-08-19T11:08:31;11.35;;;6.75;;
20245;SDS011;10281;54.406;18.556;2022-08-19T11:10:59;10.32;;;6.47;;
20245;SDS011;10281;54.406;18.556;2022-08-19T11:13:29;6.90;;;6.15;;
20245;SDS011;10281;54.406;18.556;2022-08-19T11:16:00;8.88;;;6.53;;
20245;SDS011;10281;54.406;18.556;2022-08-19T11:18:29;11.88;;;7.22;;
20245;SDS011;10281;54.406;18.556;2022-08-19T11:21:04;9.98;;;7.20;;
20245;SDS011;10281;54.406;18.556;2022-08-19T11:23:30;8.33;;;6.72;;
20245;SDS011;10281;54.406;18.556;2022-08-19T11:25:57;11.38;;;6.95;;
20245;SDS011;10281;54.406;18.556;2022-08-19T11:28:25;6.90;;;6.20;;
20245;SDS011;10281;54.406;18.556;2022-08-19T11:30:51;7.97;;;6.55;;
20245;SDS011;10281;54.406;18.556;2022-08-19T11:33:18;10.58;;;6.58;;
20245;SDS011;10281;54.406;18.556;2022-08-19T11:35:44;8.55;;;7.08;;
20245;SDS011;10281;54.406;18.556;2022-08-19T11:38:11;9.65;;;6.42;;
20245;SDS011;10281;54.406;18.556;2022-08-19T11:40:40;7.80;;;6.45;;
20245;SDS011;10281;54.406;18.556;2022-08-19T11:43:07;11.15;;;6.65;;
20245;SDS011;10281;54.406;18.556;2022-08-19T11:45:35;10.10;;;7.20;;
20245;SDS011;10281;54.406;18.556;2022-08-19T11:48:02;8.50;;;6.28;;
20245;SDS011;10281;54.406;18.556;2022-08-19T11:50:29;11.38;;;7.17;;
20245;SDS011;10281;54.406;18.556;2022-08-19T11:52:55;14.98;;;7.45;;
20245;SDS011;10281;54.406;18.556;2022-08-19T11:55:23;10.72;;;6.70;;
20245;SDS011;10281;54.406;18.556;2022-08-19T11:57:50;13.20;;;7.00;;
20245;SDS011;10281;54.406;18.556;2022-08-19T12:00:17;14.58;;;7.22;;
20245;SDS011;10281;54.406;18.556;2022-08-19T12:02:44;11.08;;;7.20;;
20245;SDS011;10281;54.406;18.556;2022-08-19T12:05:10;12.13;;;7.75;;
20245;SDS011;10281;54.406;18.556;2022-08-19T12:07:37;9.85;;;6.87;;
20245;SDS011;10281;54.406;18.556;2022-08-19T12:10:06;7.95;;;7.15;;
20245;SDS011;10281;54.406;18.556;2022-08-19T12:12:33;11.57;;;6.90;;
20245;SDS011;10281;54.406;18.556;2022-08-19T12:15:00;12.65;;;6.80;;
20245;SDS011;10281;54.406;18.556;2022-08-19T12:17:27;11.38;;;7.33;;
20245;SDS011;10281;54.406;18.556;2022-08-19T12:19:54;13.62;;;7.67;;
20245;SDS011;10281;54.406;18.556;2022-08-19T12:22:20;10.58;;;7.08;;
20245;SDS011;10281;54.406;18.556;2022-08-19T12:24:47;14.28;;;7.35;;
20245;SDS011;10281;54.406;18.556;2022-08-19T12:27:16;16.42;;;7.72;;
20245;SDS011;10281;54.406;18.556;2022-08-19T12:29:43;15.03;;;7.33;;
20245;SDS011;10281;54.406;18.556;2022-08-19T12:32:10;12.68;;;6.90;;
20245;SDS011;10281;54.406;18.556;2022-08-19T12:34:36;11.20;;;7.12;;
20245;SDS011;10281;54.406;18.556;2022-08-19T12:37:04;15.53;;;7.12;;
20245;SDS011;10281;54.406;18.556;2022-08-19T12:39:34;10.23;;;7.70;;
20245;SDS011;10281;54.406;18.556;2022-08-19T12:42:02;10.65;;;6.87;;
20245;SDS011;10281;54.406;18.556;2022-08-19T12:44:29;14.78;;;7.40;;
20245;SDS011;10281;54.406;18.556;2022-08-19T12:46:57;8.00;;;6.20;;
20245;SDS011;10281;54.406;18.556;2022-08-19T12:49:24;8.08;;;6.30;;
20245;SDS011;10281;54.406;18.556;2022-08-19T12:51:52;9.55;;;5.90;;
20245;SDS011;10281;54.406;18.556;2022-08-19T12:54:19;9.40;;;6.20;;
20245;SDS011;10281;54.406;18.556;2022-08-19T12:56:46;10.35;;;6.95;;
20245;SDS011;10281;54.406;18.556;2022-08-19T12:59:13;9.08;;;6.60;;
20245;SDS011;10281;54.406;18.556;2022-08-19T13:01:41;9.98;;;6.03;;
20245;SDS011;10281;54.406;18.556;2022-08-19T13:04:09;11.50;;;6.33;;
20245;SDS011;10281;54.406;18.556;2022-08-19T13:06:36;7.08;;;6.33;;
20245;SDS011;10281;54.406;18.556;2022-08-19T13:09:03;13.00;;;6.60;;
20245;SDS011;10281;54.406;18.556;2022-08-19T13:11:30;9.78;;;6.45;;
20245;SDS011;10281;54.406;18.556;2022-08-19T13:13:59;8.70;;;6.15;;
20245;SDS011;10281;54.406;18.556;2022-08-19T13:16:25;12.13;;;6.72;;
20245;SDS011;10281;54.406;18.556;2022-08-19T13:18:53;8.53;;;6.30;;
20245;SDS011;10281;54.406;18.556;2022-08-19T13:21:22;7.80;;;6.97;;
20245;SDS011;10281;54.406;18.556;2022-08-19T13:23:51;10.50;;;6.65;;
20245;SDS011;10281;54.406;18.556;2022-08-19T13:26:18;9.70;;;6.75;;
20245;SDS011;10281;54.406;18.556;2022-08-19T13:28:46;8.75;;;6.70;;
20245;SDS011;10281;54.406;18.556;2022-08-19T13:31:19;8.63;;;6.35;;
20245;SDS011;10281;54.406;18.556;2022-08-19T13:33:53;7.28;;;6.58;;
20245;SDS011;10281;54.406;18.556;2022-08-19T13:36:20;8.53;;;6.50;;
20245;SDS011;10281;54.406;18.556;2022-08-19T13:38:47;12.78;;;6.80;;
20245;SDS011;10281;54.406;18.556;2022-08-19T13:41:14;8.25;;;6.20;;
20245;SDS011;10281;54.406;18.556;2022-08-19T13:43:41;10.08;;;6.50;;
20245;SDS011;10281;54.406;18.556;2022-08-19T13:46:09;9.30;;;6.92;;
20245;SDS011;10281;54.406;18.556;2022-08-19T13:48:40;8.65;;;6.70;;
20245;SDS011;10281;54.406;18.556;2022-08-19T13:51:07;12.03;;;7.37;;
20245;SDS011;10281;54.406;18.556;2022-08-19T13:53:37;11.18;;;6.85;;
20245;SDS011;10281;54.406;18.556;2022-08-19T13:56:06;8.18;;;6.72;;
20245;SDS011;10281;54.406;18.556;2022-08-19T13:58:34;12.47;;;6.83;;
20245;SDS011;10281;54.406;18.556;2022-08-19T14:01:01;7.50;;;6.50;;
20245;SDS011;10281;54.406;18.556;2022-08-19T14:03:29;8.85;;;6.50;;
20245;SDS011;10281;54.406;18.556;2022-08-19T14:05:57;9.18;;;7.33;;
20245;SDS011;10281;54.406;18.556;2022-08-19T14:08:23;14.07;;;6.70;;
20245;SDS011;10281;54.406;18.556;2022-08-19T14:10:53;11.05;;;6.75;;
20245;SDS011;10281;54.406;18.556;2022-08-19T14:13:21;8.18;;;7.37;;
20245;SDS011;10281;54.406;18.556;2022-08-19T14:15:49;8.20;;;7.08;;
20245;SDS011;10281;54.406;18.556;2022-08-19T14:18:17;10.45;;;7.47;;
20245;SDS011;10281;54.406;18.556;2022-08-19T14:20:46;10.25;;;7.25;;
20245;SDS011;10281;54.406;18.556;2022-08-19T14:23:13;13.40;;;7.28;;
20245;SDS011;10281;54.406;18.556;2022-08-19T14:25:40;7.53;;;6.70;;